Time;durP1;ratioP1;P1;durP2;ratioP2;P2;SDS_P1;SDS_P2;PMS_P1;PMS_P2;Temp;Humidity;BMP_temperature;BMP_pressure;BME280_temperature;BME280_humidity;BME280_pressure;Samples;Min_cycle;Max_cycle;Signal;HPM_P1;HPM_P2
2022/06/15 00:01:45;;;;;;;;;;;;;;;;;;;;;
2022/06/15 00:04:31;;;;;;;9.60;3.40;;;;;;;10.45;52.87;99554.75;103521;1275;25248;-83
2022/06/15 00:07:32;;;;;;;15.10;4.00;;;;;;;10.40;52.96;99554.70;106132;1275;22728;-84
2022/06/15 00:10:25;;;;;;;15.20;3.70;;;;;;;10.39;53.02;99550.13;106112;1275;24385;-84
2022/06/15 00:13:22;;;;;;;;;;;;;;;;;;;;;
2022/06/15 00:16:59;;;;;;;;;;;;;;;;;;;;;
2022/06/15 00:21:02;;;;;;;14.40;4.00;;;;;;;10.22;53.28;99546.94;105576;1284;22561;-84
2022/06/15 00:24:48;;;;;;;10.50;3.60;;;;;;;10.20;53.33;99545.79;105174;1287;24269;-84
2022/06/15 00:27:33;;;;;;;12.70;3.60;;;;;;;10.15;53.19;99545.02;105089;1287;25428;-83
2022/06/15 00:30:30;;;;;;;9.10;3.30;;;;;;;10.08;53.34;99548.88;105127;1287;25371;-83
2022/06/15 00:33:53;;;;;;;;;;;;;;;;;;;;;
2022/06/15 00:37:19;;;;;;;12.30;3.60;;;;;;;10.00;53.53;99545.95;104825;1287;24229;-83
2022/06/15 00:40:37;;;;;;;14.60;4.10;;;;;;;9.98;53.52;99543.59;105183;1287;22582;-86
2022/06/15 00:44:42;;;;;;;13.50;4.10;;;;;;;9.96;53.70;99544.05;104954;1288;24327;-83
2022/06/15 00:47:55;;;;;;;;;;;;;;;;;;;;;
2022/06/15 00:54:24;;;;;;;17.10;3.90;;;;;;;9.91;54.06;99543.13;103145;1309;23475;-82
2022/06/15 00:57:49;;;;;;;12.80;3.50;;;;;;;9.87;53.98;99544.82;103306;1306;22569;-87
2022/06/15 01:00:53;;;;;;;;;;;;;;;;;;;;;
2022/06/15 01:03:50;;;;;;;14.40;4.50;;;;;;;9.68;54.32;99538.56;103958;1300;22746;-83
2022/06/15 01:07:35;;;;;;;11.00;3.60;;;;;;;9.55;54.29;99538.42;104049;1300;22604;-83
2022/06/15 01:11:21;;;;;;;11.00;3.80;;;;;;;9.46;54.41;99538.05;103591;1303;23095;-83
2022/06/15 01:14:26;;;;;;;13.80;3.50;;;;;;;9.50;54.56;99533.75;103556;1306;22697;-84
2022/06/15 01:18:05;;;;;;;15.00;4.20;;;;;;;9.54;54.81;99536.35;103586;1306;22581;-87
2022/06/15 01:21:44;;;;;;;12.20;3.80;;;;;;;9.53;54.67;99531.26;103532;1306;24402;-80
2022/06/15 01:25:11;;;;;;;;;;;;;;;;;;;;;
2022/06/15 01:29:14;;;;;;;;;;;;;;;;;;;;;
2022/06/15 01:32:22;;;;;;;13.10;3.40;;;;;;;9.46;54.88;99524.05;104969;1288;25361;-84
2022/06/15 01:35:44;;;;;;;;;;;;;;;;;;;;;
2022/06/15 01:39:28;;;;;;;15.00;3.30;;;;;;;9.21;54.72;99526.77;104363;1294;23398;-83
2022/06/15 01:42:44;;;;;;;10.90;3.30;;;;;;;8.97;55.09;99522.33;105203;1285;22552;-87
2022/06/15 01:45:46;;;;;;;;;;;;;;;;;;;;;
2022/06/15 01:48:42;;;;;;;;;;;;;;;;;;;;;
2022/06/15 01:51:55;;;;;;;;;;;;;;;;;;;;;
2022/06/15 01:54:58;;;;;;;15.00;4.10;;;;;;;8.82;55.45;99523.17;105220;1285;22679;-84
2022/06/15 01:57:56;;;;;;;;;;;;;;;;;;;;;
2022/06/15 02:00:49;;;;;;;10.80;3.00;;;;;;;8.82;55.52;99524.60;105201;1285;24257;-83
2022/06/15 02:04:02;;;;;;;11.10;3.20;;;;;;;8.85;55.58;99525.35;105187;1285;25483;-83
2022/06/15 02:06:52;;;;;;;10.80;3.10;;;;;;;8.87;55.53;99522.36;105027;1282;23178;-82
2022/06/15 02:10:43;;;;;;;14.50;3.30;;;;;;;8.86;55.53;99520.45;105848;1274;22552;-83
2022/06/15 02:13:40;;;;;;;9.60;3.10;;;;;;;8.81;55.75;99526.11;105668;1284;22549;-84
2022/06/15 02:17:32;;;;;;;10.60;3.30;;;;;;;8.73;55.89;99524.08;105824;1282;22565;-83
2022/06/15 02:20:59;;;;;;;11.80;2.90;;;;;;;8.69;56.00;99523.42;105729;1282;25472;-83
2022/06/15 02:23:50;;;;;;;;;;;;;;;;;;;;;
2022/06/15 02:27:04;;;;;;;10.00;2.80;;;;;;;8.75;56.18;99518.65;104543;1291;22650;-84
2022/06/15 02:30:02;;;;;;;10.90;3.20;;;;;;;8.76;56.20;99517.48;104585;1291;25371;-82
2022/06/15 02:32:43;;;;;;;10.20;2.70;;;;;;;8.77;56.10;99514.92;104557;1294;22681;-85
2022/06/15 02:35:33;;;;;;;;;;;;;;;;;;;;;
2022/06/15 02:38:24;;;;;;;10.00;2.80;;;;;;;8.77;56.18;99511.04;104564;1293;22933;-82
2022/06/15 02:42:02;;;;;;;13.20;3.10;;;;;;;8.68;56.22;99512.48;104448;1294;22743;-83
2022/06/15 02:44:36;;;;;;;11.90;3.50;;;;;;;8.56;56.36;99513.13;104492;1294;22749;-83
2022/06/15 02:47:07;;;;;;;10.90;3.10;;;;;;;8.45;56.37;99512.87;104300;1291;22588;-82
2022/06/15 02:49:56;;;;;;;;;;;;;;;;;;;;;
2022/06/15 02:53:09;;;;;;;;;;;;;;;;;;;;;
2022/06/15 02:56:36;;;;;;;;;;;;;;;;;;;;;
2022/06/15 02:59:29;;;;;;;10.00;2.80;;;;;;;8.44;56.29;99516.13;105345;1276;25255;-83
2022/06/15 03:02:07;;;;;;;12.10;3.10;;;;;;;8.49;56.43;99517.98;105993;1276;26458;-83
2022/06/15 03:05:55;;;;;;;9.70;2.70;;;;;;;8.53;56.50;99517.20;105917;1276;25806;-84
2022/06/15 03:08:36;;;;;;;;;;;;;;;;;;;;;
2022/06/15 03:11:45;;;;;;;;;;;;;;;;;;;;;
2022/06/15 03:15:07;;;;;;;12.00;3.30;;;;;;;8.56;56.78;99516.89;106124;1276;24429;-86
2022/06/15 03:18:24;;;;;;;;;;;;;;;;;;;;;
2022/06/15 03:21:53;;;;;;;;;;;;;;;;;;;;;
2022/06/15 03:25:06;;;;;;;11.10;3.20;;;;;;;8.61;57.00;99520.69;106000;1276;25353;-84
2022/06/15 03:28:18;;;;;;;;;;;;;;;;;;;;;
2022/06/15 03:31:32;;;;;;;;;;;;;;;;;;;;;
2022/06/15 03:34:46;;;;;;;8.20;2.50;;;;;;;8.75;57.23;99513.98;106173;1276;22693;-83
2022/06/15 03:38:12;;;;;;;8.80;3.10;;;;;;;8.90;57.30;99512.43;106152;1276;25456;-83
2022/06/15 03:40:58;;;;;;;13.70;4.50;;;;;;;9.03;57.35;99514.50;106113;1277;25240;-82
2022/06/15 03:44:15;;;;;;;13.90;4.60;;;;;;;9.17;57.24;99515.48;106119;1276;24253;-84
2022/06/15 03:47:32;;;;;;;;;;;;;;;;;;;;;
2022/06/15 03:50:23;;;;;;;11.40;3.30;;;;;;;9.29;57.26;99515.44;106172;1276;25474;-82
2022/06/15 03:54:02;;;;;;;11.90;3.50;;;;;;;9.37;57.26;99513.92;106165;1276;22564;-82
2022/06/15 03:56:53;;;;;;;10.10;3.50;;;;;;;9.48;57.35;99512.54;106145;1276;22733;-82
2022/06/15 03:59:48;;;;;;;8.80;3.20;;;;;;;9.56;57.37;99510.31;106107;1276;22671;-87
2022/06/15 04:02:54;;;;;;;11.40;3.20;;;;;;;9.67;57.43;99510.52;106003;1276;25418;-83
2022/06/15 04:05:59;;;;;;;11.20;3.00;;;;;;;9.85;57.46;99512.23;106085;1274;24201;-82
2022/06/15 04:09:25;;;;;;;9.90;3.10;;;;;;;10.04;57.41;99510.85;106151;1276;22566;-86
2022/06/15 04:12:45;;;;;;;9.60;2.80;;;;;;;10.24;57.47;99508.55;106130;1276;24216;-83
2022/06/15 04:15:53;;;;;;;10.50;3.10;;;;;;;10.43;57.60;99508.94;106068;1276;22551;-84
2022/06/15 04:19:13;;;;;;;;;;;;;;;;;;;;;
2022/06/15 04:22:44;;;;;;;;;;;;;;;;;;;;;
2022/06/15 04:25:37;;;;;;;10.30;2.80;;;;;;;11.00;57.59;99504.10;106130;1276;24426;-83
2022/06/15 04:29:49;;;;;;;8.70;2.80;;;;;;;11.17;57.72;99504.27;106136;1276;22840;-83
2022/06/15 04:33:10;;;;;;;12.30;4.00;;;;;;;11.41;57.81;99507.59;105456;1284;22797;-84
2022/06/15 04:36:12;;;;;;;;;;;;;;;;;;;;;
2022/06/15 04:39:10;;;;;;;11.80;3.30;;;;;;;11.84;57.54;99510.91;105783;1282;22567;-83
2022/06/15 04:42:06;;;;;;;11.60;3.40;;;;;;;12.05;57.64;99510.64;105621;1282;25329;-82
2022/06/15 04:45:11;;;;;;;;;;;;;;;;;;;;;
2022/06/15 04:48:50;;;;;;;;;;;;;;;;;;;;;
2022/06/15 04:52:39;;;;;;;10.80;2.70;;;;;;;12.83;57.48;99502.67;105218;1287;22548;-83
2022/06/15 04:55:53;;;;;;;;;;;;;;;;;;;;;
2022/06/15 04:59:26;;;;;;;;;;;;;;;;;;;;;
2022/06/15 05:02:43;;;;;;;9.60;2.60;;;;;;;13.59;57.09;99501.42;105187;1287;22652;-83
2022/06/15 05:05:19;;;;;;;11.60;3.00;;;;;;;13.85;57.18;99502.42;104086;1297;22704;-85
2022/06/15 05:07:56;;;;;;;14.70;3.40;;;;;;;14.05;57.05;99500.26;104351;1288;24244;-83
2022/06/15 05:10:36;;;;;;;11.50;3.10;;;;;;;14.26;57.06;99499.13;104620;1288;22590;-84
2022/06/15 05:13:17;;;;;;;14.50;3.30;;;;;;;14.45;56.86;99499.19;104643;1288;22599;-82
2022/06/15 05:15:55;;;;;;;13.60;3.50;;;;;;;14.67;56.85;99497.11;104844;1288;25232;-83
2022/06/15 05:18:43;;;;;;;12.60;3.50;;;;;;;14.88;56.72;99500.35;104571;1288;22576;-87
2022/06/15 05:21:24;;;;;;;13.40;3.50;;;;;;;15.13;56.63;99501.66;104611;1288;22604;-83
2022/06/15 05:23:56;;;;;;;13.90;3.80;;;;;;;15.34;56.55;99502.37;104520;1289;25355;-84
2022/06/15 05:26:44;;;;;;;13.80;4.00;;;;;;;15.55;56.38;99505.13;104627;1288;25259;-83
2022/06/15 05:29:25;;;;;;;14.30;3.70;;;;;;;15.75;56.32;99506.10;105215;1284;25446;-82
2022/06/15 05:31:59;;;;;;;14.20;3.50;;;;;;;15.95;56.42;99506.56;105010;1285;22643;-83
2022/06/15 05:34:40;;;;;;;13.80;3.60;;;;;;;16.13;56.29;99503.71;105170;1285;22549;-84
2022/06/15 05:37:21;;;;;;;12.90;3.30;;;;;;;16.29;56.14;99507.29;105126;1285;24204;-84
2022/06/15 05:40:07;;;;;;;14.30;3.60;;;;;;;16.41;56.20;99505.88;105231;1285;24276;-84
2022/06/15 05:42:42;;;;;;;14.40;4.10;;;;;;;16.59;56.08;99501.40;105505;1276;24366;-83
2022/06/15 05:45:25;;;;;;;16.60;4.70;;;;;;;16.74;56.11;99500.25;105818;1276;22549;-82
2022/06/15 05:48:12;;;;;;;21.10;4.00;;;;;;;16.93;56.16;99492.71;105731;1276;24292;-86
2022/06/15 05:50:53;;;;;;;11.90;3.10;;;;;;;17.17;56.07;99490.58;105914;1277;25464;-81
2022/06/15 05:53:28;;;;;;;12.70;2.80;;;;;;;17.31;55.91;99487.22;105846;1277;23031;-84
2022/06/15 05:56:00;;;;;;;10.60;3.00;;;;;;;17.47;55.76;99483.55;105910;1277;22068;-85
2022/06/15 05:58:36;;;;;;;9.30;2.50;;;;;;;17.64;55.72;99478.60;105980;1276;24146;-85
2022/06/15 06:01:20;;;;;;;12.00;3.00;;;;;;;17.79;55.55;99480.05;105888;1276;22572;-84
2022/06/15 06:03:56;;;;;;;14.00;2.80;;;;;;;17.98;55.53;99481.23;106080;1276;22636;-82
2022/06/15 06:06:26;;;;;;;11.30;2.80;;;;;;;18.14;55.23;99477.91;106838;1276;22543;-83
2022/06/15 06:09:10;;;;;;;10.80;2.20;;;;;;;18.28;55.06;99483.94;106013;1276;25304;-82
2022/06/15 06:11:49;;;;;;;11.00;2.50;;;;;;;18.40;55.08;99482.64;105895;1276;22530;-84
2022/06/15 06:14:37;;;;;;;11.00;2.20;;;;;;;18.55;55.09;99479.11;105761;1277;22533;-84
2022/06/15 06:17:08;;;;;;;9.00;2.30;;;;;;;18.68;54.83;99480.80;105923;1277;22530;-84
2022/06/15 06:19:46;;;;;;;8.20;2.10;;;;;;;18.74;54.69;99481.69;105911;1276;22553;-82
2022/06/15 06:22:21;;;;;;;8.40;2.50;;;;;;;18.87;54.88;99481.59;105940;1276;22528;-85
2022/06/15 06:24:48;;;;;;;9.40;2.40;;;;;;;19.08;54.90;99479.95;105789;1276;25548;-76
2022/06/15 06:27:18;;;;;;;11.30;2.40;;;;;;;19.28;54.75;99479.81;105885;1276;24426;-84
2022/06/15 06:29:45;;;;;;;10.70;1.70;;;;;;;19.47;54.83;99477.52;105793;1277;22657;-83
2022/06/15 06:32:17;;;;;;;11.30;2.00;;;;;;;19.65;54.45;99477.95;105607;1276;22599;-84
2022/06/15 06:34:47;;;;;;;6.20;1.30;;;;;;;19.83;54.39;99479.80;105889;1276;24244;-86
2022/06/15 06:37:15;;;;;;;7.10;1.40;;;;;;;20.00;54.36;99483.94;105865;1277;24169;-85
2022/06/15 06:39:50;;;;;;;6.60;1.00;;;;;;;20.19;54.32;99487.67;105712;1276;25244;-81
2022/06/15 06:42:17;;;;;;;6.30;1.40;;;;;;;20.31;54.04;99479.94;105862;1276;22702;-83
2022/06/15 06:44:48;;;;;;;5.60;1.10;;;;;;;20.46;53.81;99479.85;105973;1276;24366;-80
2022/06/15 06:47:16;;;;;;;7.00;1.20;;;;;;;20.60;53.85;99481.34;105833;1277;24219;-85
2022/06/15 06:49:46;;;;;;;5.20;1.20;;;;;;;20.80;53.77;99475.44;105993;1276;25232;-85
2022/06/15 06:52:18;;;;;;;6.60;1.20;;;;;;;20.95;53.55;99477.39;105792;1276;22560;-83
2022/06/15 06:54:46;;;;;;;4.90;1.20;;;;;;;21.07;53.34;99473.58;105634;1276;22623;-84
2022/06/15 06:57:13;;;;;;;5.50;1.10;;;;;;;21.21;53.39;99472.01;105857;1277;22540;-83
2022/06/15 06:59:41;;;;;;;6.70;1.20;;;;;;;21.40;53.23;99468.25;106005;1275;25245;-82
2022/06/15 07:02:25;;;;;;;6.60;1.30;;;;;;;21.52;52.97;99470.96;105890;1276;22709;-83
2022/06/15 07:04:55;;;;;;;6.40;1.30;;;;;;;21.62;52.85;99472.24;106005;1276;22530;-82
2022/06/15 07:07:25;;;;;;;6.60;1.20;;;;;;;21.75;52.76;99474.55;105959;1276;24300;-84
2022/06/15 07:09:52;;;;;;;5.80;1.10;;;;;;;21.83;52.48;99476.16;105789;1277;25277;-81
2022/06/15 07:12:19;;;;;;;7.80;1.30;;;;;;;21.89;52.46;99475.95;105861;1276;22610;-84
2022/06/15 07:14:51;;;;;;;6.90;1.30;;;;;;;22.01;52.41;99475.45;105920;1276;24248;-79
2022/06/15 07:17:38;;;;;;;9.00;1.10;;;;;;;22.16;52.21;99467.77;105768;1277;23143;-83
2022/06/15 07:20:12;;;;;;;8.10;1.30;;;;;;;22.33;52.30;99468.78;105904;1276;24276;-82
2022/06/15 07:22:39;;;;;;;6.70;1.40;;;;;;;22.47;52.00;99465.63;105987;1276;25345;-81
2022/06/15 07:25:08;;;;;;;8.00;1.40;;;;;;;22.59;51.86;99466.46;105799;1276;22534;-77
2022/06/15 07:27:42;;;;;;;5.70;1.30;;;;;;;22.68;51.82;99464.92;105814;1277;25422;-83
2022/06/15 07:30:16;;;;;;;6.90;1.90;;;;;;;22.74;51.50;99466.65;105887;1276;24219;-85
2022/06/15 07:32:44;;;;;;;7.30;1.50;;;;;;;22.71;50.70;99466.09;105970;1276;22727;-78
2022/06/15 07:35:43;;;;;;;14.40;2.60;;;;;;;22.35;50.87;99466.63;105969;1277;23916;-82
2022/06/15 07:38:14;;;;;;;11.90;1.80;;;;;;;22.53;51.49;99468.45;105960;1276;22599;-79
2022/06/15 07:40:59;;;;;;;5.70;1.40;;;;;;;22.78;51.50;99471.47;105843;1276;22609;-81
2022/06/15 07:43:39;;;;;;;6.20;1.10;;;;;;;23.05;51.07;99466.90;105906;1276;22534;-85
2022/06/15 07:46:10;;;;;;;7.10;1.50;;;;;;;22.99;50.48;99461.81;105880;1277;24212;-82
2022/06/15 07:51:34;;;;;;;9.80;1.40;;;;;;;23.37;51.06;99464.92;106038;1276;22560;-83
2022/06/15 07:54:19;;;;;;;7.50;1.40;;;;;;;23.60;50.67;99467.64;105977;1276;24294;-84
2022/06/15 07:56:54;;;;;;;7.90;1.40;;;;;;;23.71;50.23;99466.71;106002;1276;22524;-87
2022/06/15 07:59:45;;;;;;;8.00;1.40;;;;;;;23.85;50.27;99464.29;105857;1276;25592;-82
2022/06/15 08:02:32;;;;;;;5.40;1.60;;;;;;;24.02;50.24;99467.11;105887;1277;22560;-82
2022/06/15 08:05:00;;;;;;;5.40;1.10;;;;;;;24.07;49.88;99466.68;105869;1276;22544;-82
2022/06/15 08:07:45;;;;;;;6.40;1.10;;;;;;;24.18;49.88;99466.64;106035;1278;22640;-82
2022/06/15 08:10:20;;;;;;;7.40;1.30;;;;;;;24.11;49.14;99462.20;105942;1276;22626;-86
2022/06/15 08:12:50;;;;;;;10.90;2.50;;;;;;;24.01;48.95;99465.91;106000;1277;23202;-84
2022/06/15 08:15:17;;;;;;;8.50;2.10;;;;;;;23.63;48.59;99461.14;105845;1276;22536;-79
2022/06/15 08:17:48;;;;;;;8.30;2.10;;;;;;;23.64;49.23;99460.29;105856;1277;22534;-81
2022/06/15 08:20:51;;;;;;;8.70;2.70;;;;;;;23.90;49.41;99460.92;105893;1278;25383;-80
2022/06/15 08:23:32;;;;;;;9.30;2.10;;;;;;;24.20;49.23;99453.81;105969;1276;24032;-83
2022/06/15 08:26:09;;;;;;;6.00;1.20;;;;;;;24.37;48.31;99454.63;105946;1277;24292;-84
2022/06/15 08:28:54;;;;;;;;;;;;;;;;;;;;;
2022/06/15 08:31:31;;;;;;;8.40;1.20;;;;;;;24.02;48.38;99452.97;105929;1276;22624;-82
2022/06/15 08:34:19;;;;;;;9.50;1.40;;;;;;;23.85;47.43;99456.07;105949;1276;24222;-82
2022/06/15 08:36:57;;;;;;;124.50;10.00;;;;;;;23.73;47.75;99453.41;105924;1276;22547;-85
2022/06/15 08:39:27;;;;;;;11.20;1.90;;;;;;;23.89;47.59;99452.89;105925;1276;22534;-87
2022/06/15 08:42:29;;;;;;;6.40;1.00;;;;;;;23.91;47.65;99452.90;106006;1276;25373;-81
2022/06/15 08:45:25;;;;;;;5.30;1.10;;;;;;;24.09;47.29;99452.91;105703;1276;22609;-86
2022/06/15 08:48:31;;;;;;;6.80;1.10;;;;;;;23.97;46.95;99452.70;106031;1276;22560;-82
2022/06/15 08:51:36;;;;;;;12.20;0.90;;;;;;;24.05;47.55;99448.86;105904;1277;22554;-84
2022/06/15 08:54:51;;;;;;;6.10;0.90;;;;;;;24.10;45.98;99452.84;106063;1277;22853;-85
2022/06/15 08:57:38;;;;;;;5.30;0.80;;;;;;;23.66;45.98;99451.69;105592;1282;24291;-86
2022/06/15 09:00:20;;;;;;;5.10;0.80;;;;;;;23.56;46.21;99450.46;105515;1283;25302;-82
2022/06/15 09:03:20;;;;;;;5.70;1.20;;;;;;;23.51;45.58;99447.68;105712;1282;22706;-85
2022/06/15 09:06:21;;;;;;;5.10;1.00;;;;;;;23.31;45.97;99443.95;105528;1282;22729;-85
2022/06/15 09:09:04;;;;;;;5.70;0.90;;;;;;;23.41;46.50;99439.20;105141;1283;22770;-82
2022/06/15 09:11:42;;;;;;;5.20;0.80;;;;;;;23.85;46.65;99441.71;105675;1282;24395;-83
2022/06/15 09:14:31;;;;;;;6.00;1.00;;;;;;;24.29;46.69;99435.59;105606;1282;24316;-83
2022/06/15 09:17:18;;;;;;;4.80;1.10;;;;;;;24.69;46.47;99435.50;105559;1282;25438;-77
2022/06/15 09:20:21;;;;;;;5.50;1.00;;;;;;;24.98;46.23;99430.00;105466;1283;24104;-79
2022/06/15 09:22:59;;;;;;;6.40;1.10;;;;;;;25.21;45.90;99431.46;105257;1284;25608;-81
2022/06/15 09:25:35;;;;;;;3.70;0.90;;;;;;;25.40;45.98;99428.94;105624;1283;22729;-80
2022/06/15 09:28:14;;;;;;;6.50;1.00;;;;;;;25.62;45.57;99427.44;105544;1277;24221;-77
2022/06/15 09:30:42;;;;;;;5.30;0.90;;;;;;;25.77;45.51;99424.84;105947;1276;22585;-77
2022/06/15 09:33:28;;;;;;;7.70;1.30;;;;;;;25.96;45.43;99424.85;105917;1276;24027;-81
2022/06/15 09:36:03;;;;;;;9.60;3.00;;;;;;;26.00;45.01;99418.85;105887;1276;24256;-82
2022/06/15 09:38:33;;;;;;;8.40;3.00;;;;;;;25.92;44.51;99413.80;105830;1277;26472;-80
2022/06/15 09:41:09;;;;;;;8.90;1.60;;;;;;;25.80;44.77;99412.83;106064;1277;23181;-79
2022/06/15 09:43:58;;;;;;;6.80;0.90;;;;;;;25.97;45.32;99411.05;106017;1276;24244;-81
2022/06/15 09:46:52;;;;;;;6.30;1.10;;;;;;;26.22;45.08;99410.52;105991;1276;25374;-80
2022/06/15 09:49:46;;;;;;;6.40;0.90;;;;;;;26.39;44.67;99406.58;105932;1277;22682;-82
2022/06/15 09:52:31;;;;;;;7.30;1.10;;;;;;;26.48;44.84;99404.71;105829;1277;25832;-80
2022/06/15 09:55:10;;;;;;;6.10;1.00;;;;;;;26.64;44.61;99396.86;105795;1278;24259;-82
2022/06/15 09:57:53;;;;;;;4.70;0.90;;;;;;;26.71;43.98;99392.54;105875;1276;22847;-82
2022/06/15 10:00:23;;;;;;;4.20;1.00;;;;;;;26.64;43.94;99392.52;105980;1276;22708;-84
2022/06/15 10:03:06;;;;;;;4.70;1.20;;;;;;;26.47;43.97;99396.42;106450;1276;24282;-81
2022/06/15 10:05:37;;;;;;;7.50;1.00;;;;;;;26.49;44.13;99399.13;106131;1277;22653;-81
2022/06/15 10:08:10;;;;;;;6.60;0.90;;;;;;;26.67;43.85;99392.54;106006;1276;26538;-79
2022/06/15 10:10:56;;;;;;;4.20;1.10;;;;;;;26.77;43.24;99393.90;105937;1277;22554;-84
2022/06/15 10:13:32;;;;;;;5.10;1.00;;;;;;;26.72;43.44;99394.40;105924;1275;22892;-82
2022/06/15 10:16:33;;;;;;;5.40;1.10;;;;;;;26.90;43.66;99394.35;106027;1277;22563;-83
2022/06/15 10:19:12;;;;;;;4.40;0.90;;;;;;;26.94;42.47;99387.33;105503;1284;22718;-83
2022/06/15 10:21:40;;;;;;;4.60;1.00;;;;;;;26.56;42.95;99389.88;105594;1282;24255;-79
2022/06/15 10:24:42;;;;;;;16.20;7.80;;;;;;;26.55;43.20;99387.22;105566;1282;26445;-84
2022/06/15 10:27:26;;;;;;;8.50;2.70;;;;;;;26.52;43.24;99390.49;105665;1283;22750;-80
2022/06/15 10:30:24;;;;;;;7.80;1.20;;;;;;;26.55;42.89;99389.17;105645;1282;22544;-78
2022/06/15 10:33:12;;;;;;;6.60;1.40;;;;;;;26.34;42.25;99392.01;105488;1283;23072;-79
2022/06/15 10:35:40;;;;;;;7.50;1.10;;;;;;;26.13;42.75;99388.53;105591;1282;24510;-85
2022/06/15 10:38:15;;;;;;;4.00;1.00;;;;;;;26.21;42.76;99385.02;105631;1282;24389;-80
2022/06/15 10:40:56;;;;;;;5.20;1.20;;;;;;;26.34;42.75;99381.52;105383;1285;22546;-80
2022/06/15 10:43:41;;;;;;;5.70;1.00;;;;;;;26.60;42.93;99380.29;105096;1283;24229;-79
2022/06/15 10:46:47;;;;;;;3.90;1.10;;;;;;;26.84;42.01;99378.92;105349;1282;22567;-82
2022/06/15 10:49:20;;;;;;;6.60;1.00;;;;;;;26.54;41.20;99373.80;105540;1282;22631;-81
2022/06/15 10:52:05;;;;;;;8.30;1.50;;;;;;;26.11;41.45;99371.34;105182;1283;22550;-82
2022/06/15 11:03:25;;;;;;;5.70;0.90;;;;;;;27.21;42.16;99364.98;105996;1276;22543;-77
2022/06/15 11:05:58;;;;;;;5.80;1.20;;;;;;;27.36;41.77;99364.06;105969;1276;22550;-79
2022/06/15 11:08:29;;;;;;;6.60;1.60;;;;;;;27.47;41.27;99363.80;105642;1278;22661;-78
2022/06/15 11:11:24;;;;;;;6.60;1.40;;;;;;;27.43;41.33;99361.11;105762;1277;25425;-80
2022/06/15 11:14:22;;;;;;;;;;;;;;;;;;;;;
2022/06/15 11:18:10;;;;;;;5.60;1.20;;;;;;;27.58;41.36;99358.94;105868;1278;24331;-79
2022/06/15 11:21:38;;;;;;;7.90;0.80;;;;;;;27.59;40.79;99355.91;106817;1275;26469;-82
2022/06/15 11:24:11;;;;;;;4.20;1.00;;;;;;;27.16;41.14;99357.81;105983;1277;25492;-81
2022/06/15 11:27:04;;;;;;;4.80;1.10;;;;;;;27.27;41.15;99351.86;105733;1278;22600;-84
2022/06/15 11:29:46;;;;;;;6.10;1.20;;;;;;;27.45;41.15;99351.91;106029;1276;22550;-79
2022/06/15 11:32:52;;;;;;;6.70;1.00;;;;;;;27.64;40.82;99351.68;106026;1277;26557;-79
2022/06/15 11:36:22;;;;;;;;;;;;;;;;;;;;;
2022/06/15 11:39:34;;;;;;;4.40;1.10;;;;;;;27.56;39.48;99342.70;106292;1275;22542;-85
2022/06/15 11:42:10;;;;;;;5.10;0.90;;;;;;;27.34;40.61;99343.34;105939;1277;22556;-84
2022/06/15 11:44:45;;;;;;;6.80;1.00;;;;;;;27.50;40.67;99347.69;106393;1277;22688;-84
2022/06/15 11:47:46;;;;;;;5.30;1.10;;;;;;;27.71;40.32;99339.66;106902;1277;25492;-82
2022/06/15 11:50:44;;;;;;;6.50;1.10;;;;;;;27.90;40.37;99340.89;106339;1277;22581;-81
2022/06/15 11:53:52;;;;;;;5.50;0.90;;;;;;;28.01;40.19;99336.49;105999;1276;25308;-83
2022/06/15 11:56:22;;;;;;;5.90;1.00;;;;;;;27.77;39.91;99338.67;106367;1277;22562;-79
2022/06/15 11:59:20;;;;;;;7.50;1.40;;;;;;;27.68;39.41;99341.04;106825;1277;22616;-80
2022/06/15 12:02:29;;;;;;;6.30;1.00;;;;;;;27.22;39.67;99343.19;103927;1277;3032985;-82
2022/06/15 12:05:20;;;;;;;7.70;1.20;;;;;;;27.11;39.70;99339.97;109446;1277;23227;-82
2022/06/15 12:08:05;;;;;;;5.60;1.10;;;;;;;26.94;39.79;99333.14;109315;1278;22503;-79
2022/06/15 12:19:56;;;;;;;;;;;;;;;;;;;;;
2022/06/15 12:22:49;;;;;;;5.80;1.20;;;;;;;27.52;39.25;99331.91;109519;1274;22365;-80
2022/06/15 12:26:17;;;;;;;4.30;1.00;;;;;;;27.59;39.29;99329.48;109489;1276;22342;-81
2022/06/15 12:29:50;;;;;;;5.90;1.00;;;;;;;27.64;39.11;99323.02;109690;1274;22200;-82
2022/06/15 12:37:43;;;;;;;8.30;1.20;;;;;;;27.58;39.16;99317.20;109097;1281;23089;-81
2022/06/15 12:40:51;;;;;;;;;;;;;;;;;;;;;
2022/06/15 12:55:18;;;;;;;4.40;1.00;;;;;;;27.09;38.71;99305.15;108338;1287;22484;-78
2022/06/15 12:58:35;;;;;;;3.80;1.00;;;;;;;27.08;38.66;99302.19;108143;1287;23094;-81
2022/06/15 13:01:31;;;;;;;;;;;;;;;;;;;;;
2022/06/15 13:04:37;;;;;;;5.10;1.20;;;;;;;27.13;38.64;99303.58;108174;1288;22383;-77
2022/06/15 13:07:20;;;;;;;4.00;1.10;;;;;;;27.14;38.24;99295.15;108077;1288;22553;-78
2022/06/15 13:10:28;;;;;;;8.90;1.70;;;;;;;27.10;38.08;99294.96;108120;1284;22902;-81
2022/06/15 13:13:03;;;;;;;5.90;1.20;;;;;;;26.75;38.13;99288.48;108706;1284;22355;-81
2022/06/15 13:15:54;;;;;;;4.80;1.20;;;;;;;26.81;38.54;99289.63;108783;1284;23160;-81
2022/06/15 13:18:48;;;;;;;6.00;1.50;;;;;;;26.94;38.04;99287.79;108658;1283;22415;-81
2022/06/15 13:21:22;;;;;;;5.50;1.10;;;;;;;26.98;38.38;99284.24;108487;1284;22343;-81
2022/06/15 13:24:07;;;;;;;4.20;1.20;;;;;;;27.12;38.17;99292.15;108529;1283;23105;-78
2022/06/15 13:26:36;;;;;;;5.50;1.30;;;;;;;27.12;37.75;99283.83;108593;1284;22192;-76
2022/06/15 13:29:09;;;;;;;6.70;1.20;;;;;;;27.07;37.77;99281.69;109379;1276;22329;-78
2022/06/15 13:31:49;;;;;;;98.40;56.80;;;;;;;27.09;38.10;99277.73;109615;1277;22163;-78
2022/06/15 13:34:42;;;;;;;165.40;84.40;;;;;;;27.20;38.07;99273.42;109607;1276;22983;-79
2022/06/15 13:37:23;;;;;;;12.60;3.80;;;;;;;27.41;38.27;99270.77;109470;1277;22378;-80
2022/06/15 13:39:54;;;;;;;261.90;147.90;;;;;;;27.49;38.18;99274.18;109594;1276;22948;-78
2022/06/15 13:42:37;;;;;;;391.20;230.80;;;;;;;27.59;38.04;99268.19;109416;1277;22326;-78
2022/06/15 13:45:33;;;;;;;207.20;107.00;;;;;;;27.70;38.05;99268.66;109372;1277;22229;-79
2022/06/15 13:48:06;;;;;;;170.20;83.90;;;;;;;27.74;37.98;99263.80;109614;1276;22504;-78
2022/06/15 13:50:48;;;;;;;130.50;57.60;;;;;;;27.77;37.83;99257.95;109428;1276;22332;-79
2022/06/15 13:53:34;;;;;;;21.80;9.20;;;;;;;27.70;37.90;99256.77;109367;1277;22192;-79
2022/06/15 13:56:18;;;;;;;11.10;2.90;;;;;;;27.77;37.85;99256.86;109629;1276;23360;-80
2022/06/15 13:58:55;;;;;;;81.20;47.70;;;;;;;27.89;37.81;99250.40;109428;1277;23045;-76
2022/06/15 14:01:37;;;;;;;70.80;38.60;;;;;;;27.94;37.81;99252.23;109635;1276;22171;-79
2022/06/15 14:04:34;;;;;;;25.50;13.60;;;;;;;28.04;37.67;99249.65;109605;1276;22182;-79
2022/06/15 14:07:04;;;;;;;21.00;10.60;;;;;;;28.13;37.76;99244.45;109572;1277;22466;-77
2022/06/15 14:09:50;;;;;;;35.50;18.80;;;;;;;28.22;37.46;99236.66;109574;1277;22429;-79
2022/06/15 14:12:43;;;;;;;13.30;5.60;;;;;;;28.29;37.37;99238.08;109405;1277;22368;-77
2022/06/15 14:15:40;;;;;;;21.80;8.70;;;;;;;28.32;37.32;99239.44;109627;1277;22372;-77
2022/06/15 14:18:37;;;;;;;14.90;4.90;;;;;;;28.37;37.16;99235.55;109584;1277;22614;-78
2022/06/15 14:21:29;;;;;;;13.60;5.00;;;;;;;28.34;37.51;99233.41;109343;1278;22420;-77
2022/06/15 14:24:25;;;;;;;6.80;1.60;;;;;;;28.17;37.09;99237.29;109125;1277;22983;-78
2022/06/15 14:26:57;;;;;;;8.40;2.40;;;;;;;27.82;37.33;99230.75;109424;1277;22169;-77
2022/06/15 14:29:35;;;;;;;12.40;3.90;;;;;;;27.49;37.49;99235.42;109226;1276;22389;-78
2022/06/15 14:32:37;;;;;;;7.70;1.70;;;;;;;27.19;37.74;99233.65;109105;1277;22999;-78
2022/06/15 14:35:23;;;;;;;7.90;1.80;;;;;;;26.93;37.71;99234.41;109345;1277;22524;-77
2022/06/15 14:38:01;;;;;;;8.40;1.40;;;;;;;27.04;37.31;99235.47;109372;1277;22310;-77
2022/06/15 14:40:41;;;;;;;8.40;1.40;;;;;;;27.24;37.60;99233.71;109551;1277;22328;-77
2022/06/15 14:43:12;;;;;;;6.10;1.20;;;;;;;27.38;37.29;99231.45;109370;1277;22351;-78
2022/06/15 14:45:49;;;;;;;9.00;1.60;;;;;;;27.40;37.25;99227.40;109575;1277;22358;-76
2022/06/15 14:48:33;;;;;;;4.30;1.10;;;;;;;27.48;37.30;99231.89;109242;1277;22261;-78
2022/06/15 14:51:22;;;;;;;7.10;1.30;;;;;;;27.67;37.59;99221.67;109420;1277;22957;-79
2022/06/15 14:53:55;;;;;;;8.70;2.10;;;;;;;27.93;37.27;99222.12;109303;1277;22197;-76
2022/06/15 14:56:26;;;;;;;11.10;2.20;;;;;;;28.07;37.43;99225.57;109632;1277;22501;-75
2022/06/15 14:59:00;;;;;;;8.60;1.40;;;;;;;28.17;37.08;99225.25;109231;1277;22542;-77